createdAt,value
2022-10-22T00:00:43.106Z,55.96
2022-10-22T00:03:10.176Z,56.17
2022-10-22T00:05:39.382Z,57.12
2022-10-22T00:08:06.409Z,56.88
2022-10-22T00:10:38.476Z,57.68
2022-10-22T00:13:05.579Z,56.80
2022-10-22T00:15:32.874Z,57.54
2022-10-22T00:17:59.815Z,57.69
2022-10-22T00:20:28.803Z,58.34
2022-10-22T00:23:00.581Z,58.65
2022-10-22T00:25:27.586Z,56.31
2022-10-22T00:27:54.704Z,55.81
2022-10-22T00:30:21.764Z,55.51
2022-10-22T00:32:48.717Z,55.94
2022-10-22T00:35:17.615Z,55.94
2022-10-22T00:37:45.794Z,56.52
2022-10-22T00:40:13.346Z,56.08
2022-10-22T00:42:40.908Z,56.58
2022-10-22T00:45:11.227Z,56.83
2022-10-22T00:47:40.913Z,57.46
2022-10-22T00:50:10.032Z,57.50
2022-10-22T00:52:38.695Z,58.69
2022-10-22T00:55:06.352Z,58.62
2022-10-22T00:57:34.106Z,56.98
2022-10-22T01:00:01.262Z,56.27
2022-10-22T01:02:29.017Z,55.73
2022-10-22T01:04:56.129Z,56.08
2022-10-22T01:07:23.253Z,56.72
2022-10-22T01:10:00.520Z,56.60
2022-10-22T01:13:06.420Z,57.31
2022-10-22T01:15:59.319Z,57.48
2022-10-22T01:18:35.536Z,57.89
2022-10-22T01:21:35.136Z,58.21
2022-10-22T01:24:20.744Z,58.88
2022-10-22T01:26:57.598Z,57.89
2022-10-22T01:29:24.817Z,56.46
2022-10-22T01:31:54.563Z,55.65
2022-10-22T01:34:21.991Z,55.35
2022-10-22T01:36:49.530Z,56.02
2022-10-22T01:39:16.440Z,56.84
2022-10-22T01:41:45.508Z,56.82
2022-10-22T01:44:42.163Z,58.06
2022-10-22T01:47:21.324Z,58.73
2022-10-22T01:50:29.002Z,59.44
2022-10-22T01:53:32.893Z,59.71
2022-10-22T01:56:41.122Z,59.95
2022-10-22T01:59:35.260Z,59.33
2022-10-22T02:02:08.357Z,57.93
2022-10-22T02:04:46.995Z,57.51
2022-10-22T02:07:15.697Z,58.04
2022-10-22T02:09:43.292Z,58.24
2022-10-22T02:12:10.922Z,57.70
2022-10-22T02:14:39.196Z,57.97
2022-10-22T02:17:09.150Z,57.72
2022-10-22T02:19:47.988Z,58.84
2022-10-22T02:22:15.625Z,58.73
2022-10-22T02:24:42.857Z,58.38
2022-10-22T02:27:32.931Z,59.26
2022-10-22T02:30:10.980Z,60.91
2022-10-22T02:33:08.534Z,59.71
2022-10-22T02:35:35.557Z,56.83
2022-10-22T02:38:02.916Z,56.09
2022-10-22T02:40:30.995Z,56.77
2022-10-22T02:42:57.959Z,56.37
2022-10-22T02:45:25.422Z,56.72
2022-10-22T02:47:52.447Z,58.05
2022-10-22T02:50:21.965Z,58.29
2022-10-22T02:52:49.139Z,58.31
2022-10-22T02:55:16.080Z,58.75
2022-10-22T02:57:44.256Z,58.61
2022-10-22T03:00:11.634Z,58.91
2022-10-22T03:02:40.142Z,59.87
2022-10-22T03:05:07.878Z,59.54
2022-10-22T03:07:35.277Z,57.18
2022-10-22T03:10:03.010Z,56.71
2022-10-22T03:12:34.322Z,57.07
2022-10-22T03:15:01.258Z,57.68
2022-10-22T03:17:32.838Z,56.43
2022-10-22T03:19:59.787Z,57.42
2022-10-22T03:22:28.893Z,57.70
2022-10-22T03:24:59.101Z,58.30
2022-10-22T03:27:27.194Z,58.33
2022-10-22T03:29:54.131Z,58.87
2022-10-22T03:32:21.234Z,59.63
2022-10-22T03:34:48.609Z,59.66
2022-10-22T03:37:15.665Z,58.53
2022-10-22T03:39:42.732Z,58.01
2022-10-22T03:42:13.689Z,58.02
2022-10-22T03:44:40.877Z,57.75
2022-10-22T03:47:08.320Z,58.07
2022-10-22T03:49:35.640Z,58.16
2022-10-22T03:52:09.969Z,58.26
2022-10-22T03:57:09.414Z,60.06
2022-10-22T03:59:37.416Z,59.95
2022-10-22T04:02:04.633Z,60.30
2022-10-22T04:04:31.611Z,59.08
2022-10-22T04:06:59.077Z,57.81
2022-10-22T04:09:26.186Z,57.87
2022-10-22T04:11:53.853Z,58.24
2022-10-22T04:14:24.719Z,59.05
2022-10-22T04:16:52.222Z,58.98
2022-10-22T04:19:19.150Z,59.42
2022-10-22T04:21:46.142Z,59.82
2022-10-22T04:24:13.981Z,59.53
2022-10-22T04:26:41.638Z,60.42
2022-10-22T04:29:11.914Z,61.15
2022-10-22T04:31:43.107Z,61.09
2022-10-22T04:34:10.215Z,60.18
2022-10-22T04:36:37.440Z,59.57
2022-10-22T04:39:04.611Z,59.45
2022-10-22T04:41:34.072Z,59.36
2022-10-22T04:44:02.119Z,59.84
2022-10-22T04:46:30.867Z,60.63
2022-10-22T04:48:58.001Z,59.85
2022-10-22T04:51:25.878Z,58.79
2022-10-22T04:53:54.352Z,61.31
2022-10-22T04:56:26.386Z,61.83
2022-10-22T04:59:04.881Z,60.28
2022-10-22T05:01:35.793Z,59.72
2022-10-22T05:04:06.202Z,59.50
2022-10-22T05:06:34.327Z,60.19
2022-10-22T05:09:04.453Z,60.24
2022-10-22T05:11:37.044Z,60.65
2022-10-22T05:14:05.269Z,60.87
2022-10-22T05:16:33.379Z,61.31
2022-10-22T05:19:00.775Z,62.18
2022-10-22T05:21:32.384Z,61.94
2022-10-22T05:24:00.038Z,60.57
2022-10-22T05:26:27.338Z,59.85
2022-10-22T05:28:55.115Z,59.86
2022-10-22T05:31:22.183Z,60.19
2022-10-22T05:33:49.333Z,59.90
2022-10-22T05:36:18.413Z,60.85
2022-10-22T05:38:47.663Z,61.76
2022-10-22T05:41:16.813Z,62.11
2022-10-22T05:43:44.249Z,61.75
2022-10-22T05:46:22.030Z,60.25
2022-10-22T05:49:01.752Z,58.79
2022-10-22T05:51:30.546Z,57.25
2022-10-22T05:54:01.221Z,56.18
2022-10-22T05:56:28.946Z,55.55
2022-10-22T05:58:56.000Z,55.31
2022-10-22T06:01:25.104Z,55.24
2022-10-22T06:04:00.259Z,54.66
2022-10-22T06:06:36.317Z,53.51
2022-10-22T06:09:05.169Z,52.96
2022-10-22T06:11:35.124Z,52.26
2022-10-22T06:14:03.795Z,50.73
2022-10-22T06:16:31.209Z,50.40
2022-10-22T06:19:02.120Z,49.28
2022-10-22T06:21:29.493Z,48.92
2022-10-22T06:23:58.342Z,48.95
2022-10-22T06:26:25.287Z,48.06
2022-10-22T06:28:53.051Z,47.26
2022-10-22T06:31:20.225Z,46.29
2022-10-22T06:33:50.605Z,45.01
2022-10-22T06:36:19.825Z,44.44
2022-10-22T06:38:51.101Z,43.97
2022-10-22T06:41:18.200Z,42.10
2022-10-22T06:43:46.901Z,42.20
2022-10-22T06:46:18.991Z,41.75
2022-10-22T06:48:55.530Z,41.76
2022-10-22T06:51:23.301Z,41.04
2022-10-22T06:53:50.362Z,40.46
2022-10-22T06:56:19.085Z,40.83
2022-10-22T06:58:50.894Z,39.68
2022-10-22T07:01:19.528Z,39.96
2022-10-22T07:03:46.531Z,40.69
2022-10-22T07:06:15.306Z,40.62
2022-10-22T07:08:42.432Z,40.35
2022-10-22T07:11:11.643Z,40.59
2022-10-22T07:13:38.772Z,40.96
2022-10-22T07:16:09.239Z,40.87
2022-10-22T07:18:37.313Z,40.46
2022-10-22T07:21:08.235Z,41.06
2022-10-22T07:23:36.513Z,41.66
2022-10-22T07:26:07.427Z,42.85
2022-10-22T07:28:35.639Z,43.17
2022-10-22T07:31:02.625Z,43.31
2022-10-22T07:33:31.366Z,43.02
2022-10-22T07:35:59.991Z,43.15
2022-10-22T07:38:27.390Z,44.62
2022-10-22T07:40:54.656Z,44.17
2022-10-22T07:43:21.696Z,44.24
2022-10-22T07:45:49.753Z,44.02
2022-10-22T07:48:16.817Z,42.52
2022-10-22T07:53:17.368Z,44.15
2022-10-22T07:55:44.338Z,44.20
2022-10-22T07:58:11.320Z,43.98
2022-10-22T08:00:38.417Z,44.43
2022-10-22T08:03:05.404Z,44.36
2022-10-22T08:05:32.664Z,44.51
2022-10-22T08:07:59.626Z,45.72
2022-10-22T08:10:26.652Z,45.48
2022-10-22T08:12:54.713Z,44.59
2022-10-22T08:15:25.635Z,45.02
2022-10-22T08:17:53.125Z,45.20
2022-10-22T08:20:20.165Z,44.97
2022-10-22T08:22:48.576Z,45.24
2022-10-22T08:25:18.092Z,43.74
2022-10-22T08:27:45.434Z,43.65
2022-10-22T08:30:13.338Z,42.89
2022-10-22T08:32:40.846Z,41.78
2022-10-22T08:35:08.243Z,42.02
2022-10-22T08:37:36.089Z,42.06
2022-10-22T08:40:04.152Z,41.65
2022-10-22T08:42:49.766Z,40.90
2022-10-22T08:45:38.578Z,40.31
2022-10-22T08:48:21.644Z,40.28
2022-10-22T08:50:50.030Z,39.58
2022-10-22T08:53:22.490Z,39.15
2022-10-22T08:55:50.214Z,38.15
2022-10-22T08:58:40.276Z,36.45
2022-10-22T09:01:20.138Z,34.31
2022-10-22T09:03:51.464Z,34.62
2022-10-22T09:06:22.935Z,34.43
2022-10-22T09:08:50.184Z,34.13
2022-10-22T09:11:23.935Z,32.41
2022-10-22T09:13:51.842Z,31.93
2022-10-22T09:16:19.954Z,33.10
2022-10-22T09:19:15.086Z,32.98
2022-10-22T09:22:08.434Z,30.26
2022-10-22T09:24:35.479Z,28.96
2022-10-22T09:27:02.775Z,31.05
2022-10-22T09:29:33.618Z,30.69
2022-10-22T09:32:00.802Z,31.09
2022-10-22T09:34:31.082Z,30.74
2022-10-22T09:37:06.435Z,30.57
2022-10-22T09:39:54.104Z,29.92
2022-10-22T09:42:21.269Z,29.87
2022-10-22T09:44:56.050Z,28.51
2022-10-22T09:47:42.731Z,28.64
2022-10-22T09:50:28.877Z,27.97
2022-10-22T09:53:21.236Z,29.00
2022-10-22T09:58:26.396Z,31.05
2022-10-22T10:00:56.411Z,30.11
2022-10-22T10:03:27.782Z,30.12
2022-10-22T10:05:58.060Z,30.36
2022-10-22T10:08:27.511Z,30.54
2022-10-22T10:11:01.203Z,30.85
2022-10-22T10:13:50.355Z,30.65
2022-10-22T10:16:25.452Z,31.63
2022-10-22T10:19:11.674Z,31.89
2022-10-22T10:21:39.115Z,32.59
2022-10-22T10:24:20.756Z,32.79
2022-10-22T10:26:54.335Z,32.87
2022-10-22T10:29:33.062Z,33.41
2022-10-22T10:32:13.554Z,33.79
2022-10-22T10:34:48.973Z,34.09
2022-10-22T10:37:26.638Z,33.66
2022-10-22T10:40:08.844Z,32.83
2022-10-22T10:42:57.325Z,33.50
2022-10-22T10:45:36.985Z,34.68
2022-10-22T10:48:12.722Z,34.08
2022-10-22T10:50:40.499Z,34.37
2022-10-22T10:53:47.853Z,32.09
2022-10-22T10:56:41.448Z,32.73
2022-10-22T10:59:30.650Z,32.05
2022-10-22T11:02:09.737Z,33.75
2022-10-22T11:05:08.841Z,32.85
2022-10-22T11:07:42.794Z,32.87
2022-10-22T11:10:51.778Z,32.27
2022-10-22T11:13:22.146Z,32.70
2022-10-22T11:16:12.442Z,32.96
2022-10-22T11:19:22.524Z,32.57
2022-10-22T11:22:30.304Z,31.50
2022-10-22T11:25:13.569Z,31.65
2022-10-22T11:27:50.214Z,31.75
2022-10-22T11:30:22.062Z,31.95
2022-10-22T11:32:54.554Z,29.85
2022-10-22T11:35:26.636Z,29.76
2022-10-22T11:37:55.060Z,29.83
2022-10-22T11:40:32.704Z,30.39
2022-10-22T11:43:07.279Z,30.43
2022-10-22T11:45:42.120Z,30.26
2022-10-22T11:48:18.957Z,31.04
2022-10-22T11:50:48.582Z,31.14
2022-10-22T11:53:21.618Z,31.55
2022-10-22T11:56:18.060Z,31.83
2022-10-22T11:58:50.697Z,31.48
2022-10-22T12:01:26.898Z,32.94
2022-10-22T12:04:17.769Z,32.90
2022-10-22T12:06:56.842Z,32.16
2022-10-22T12:09:26.721Z,32.74
2022-10-22T12:11:55.504Z,33.30
2022-10-22T12:14:26.738Z,33.54
2022-10-22T12:16:59.654Z,33.36
2022-10-22T12:19:37.441Z,33.85
2022-10-22T12:22:07.591Z,34.27
2022-10-22T12:24:37.243Z,34.91
2022-10-22T12:27:04.626Z,35.17
2022-10-22T12:29:32.193Z,34.99
2022-10-22T12:32:03.365Z,34.32
2022-10-22T12:34:30.392Z,34.85
2022-10-22T12:36:57.343Z,34.76
2022-10-22T12:39:27.442Z,34.82
2022-10-22T12:41:54.670Z,35.16
2022-10-22T12:44:21.624Z,35.32
2022-10-22T12:46:52.934Z,35.37
2022-10-22T12:49:42.448Z,35.08
2022-10-22T12:52:15.167Z,35.24
2022-10-22T12:54:42.553Z,35.30
2022-10-22T12:57:14.433Z,35.54
2022-10-22T12:59:48.762Z,35.94
2022-10-22T13:02:24.762Z,36.25
2022-10-22T13:05:21.855Z,36.38
2022-10-22T13:08:03.241Z,36.50
2022-10-22T13:10:33.045Z,36.61
2022-10-22T13:13:06.464Z,36.68
2022-10-22T13:15:36.972Z,36.92
2022-10-22T13:18:29.228Z,37.13
2022-10-22T13:21:05.980Z,37.06
2022-10-22T13:23:34.140Z,37.23
2022-10-22T13:26:02.365Z,37.57
2022-10-22T13:28:33.689Z,37.71
2022-10-22T13:31:02.246Z,37.85
2022-10-22T13:33:40.393Z,38.04
2022-10-22T13:36:08.608Z,38.11
2022-10-22T13:38:36.101Z,38.27
2022-10-22T13:41:04.911Z,38.48
2022-10-22T13:43:32.417Z,38.86
2022-10-22T13:45:59.723Z,39.30
2022-10-22T13:48:26.784Z,39.54
2022-10-22T13:50:54.443Z,39.72
2022-10-22T13:53:23.213Z,40.32
2022-10-22T13:55:50.454Z,40.84
2022-10-22T13:58:19.037Z,41.13
2022-10-22T14:00:48.641Z,41.93
2022-10-22T14:03:17.731Z,42.06
2022-10-22T14:05:47.258Z,41.81
2022-10-22T14:08:19.014Z,42.17
2022-10-22T14:10:47.606Z,43.10
2022-10-22T14:13:15.724Z,44.28
2022-10-22T14:15:43.459Z,45.17
2022-10-22T14:18:12.863Z,44.87
2022-10-22T14:20:40.289Z,45.02
2022-10-22T14:25:48.194Z,45.74
2022-10-22T14:28:15.228Z,46.51
2022-10-22T14:30:42.152Z,47.82
2022-10-22T14:33:17.342Z,48.87
2022-10-22T14:35:44.300Z,48.89
2022-10-22T14:38:11.340Z,49.07
2022-10-22T14:40:39.401Z,48.25
2022-10-22T14:43:06.477Z,47.78
2022-10-22T14:45:34.148Z,47.84
2022-10-22T14:48:02.008Z,48.35
2022-10-22T14:50:29.251Z,47.65
2022-10-22T14:52:58.918Z,48.37
2022-10-22T14:55:27.229Z,48.44
2022-10-22T14:57:55.261Z,49.98
2022-10-22T15:00:22.637Z,51.01
2022-10-22T15:02:49.646Z,51.09
2022-10-22T15:05:17.684Z,51.40
2022-10-22T15:07:45.252Z,51.12
2022-10-22T15:10:12.253Z,51.79
2022-10-22T15:12:40.104Z,51.37
2022-10-22T15:15:07.514Z,52.37
2022-10-22T15:17:34.669Z,52.40
2022-10-22T15:20:04.220Z,51.99
2022-10-22T15:22:32.081Z,53.72
2022-10-22T15:24:59.064Z,53.74
2022-10-22T15:27:26.078Z,53.77
2022-10-22T15:29:54.938Z,54.46
2022-10-22T15:32:24.981Z,54.41
2022-10-22T15:34:53.119Z,53.76
2022-10-22T15:37:20.721Z,54.38
2022-10-22T15:39:49.428Z,54.14
2022-10-22T15:42:18.614Z,55.27
2022-10-22T15:44:45.976Z,55.00
2022-10-22T15:47:13.050Z,55.86
2022-10-22T15:49:41.957Z,56.31
2022-10-22T15:52:09.875Z,56.40
2022-10-22T15:54:39.632Z,56.85
2022-10-22T15:57:08.782Z,57.51
2022-10-22T15:59:36.198Z,56.67
2022-10-22T16:02:03.475Z,54.96
2022-10-22T16:04:30.774Z,53.95
2022-10-22T16:07:01.108Z,53.42
2022-10-22T16:09:28.319Z,54.55
2022-10-22T16:11:55.660Z,55.30
2022-10-22T16:14:24.139Z,55.68
2022-10-22T16:16:55.593Z,55.77
2022-10-22T16:19:23.654Z,56.62
2022-10-22T16:21:51.699Z,57.07
2022-10-22T16:24:19.204Z,56.82
2022-10-22T16:26:47.672Z,56.35
2022-10-22T16:29:15.888Z,56.33
2022-10-22T16:31:47.076Z,56.66
2022-10-22T16:34:14.567Z,56.12
2022-10-22T16:36:44.939Z,54.95
2022-10-22T16:39:12.158Z,55.04
2022-10-22T16:41:39.581Z,57.06
2022-10-22T16:44:07.891Z,58.76
2022-10-22T16:46:39.451Z,59.07
2022-10-22T16:49:06.961Z,57.64
2022-10-22T16:51:34.260Z,56.92
2022-10-22T16:54:03.667Z,57.18
2022-10-22T16:56:33.778Z,57.42
2022-10-22T16:59:00.889Z,57.99
2022-10-22T17:01:29.846Z,57.50
2022-10-22T17:03:59.480Z,57.92
2022-10-22T17:06:26.977Z,58.96
2022-10-22T17:08:54.260Z,57.35
2022-10-22T17:11:23.503Z,59.81
2022-10-22T17:13:52.766Z,58.67
2022-10-22T17:16:23.054Z,57.17
2022-10-22T17:18:50.465Z,55.98
2022-10-22T17:21:17.770Z,56.71
2022-10-22T17:23:46.301Z,57.49
2022-10-22T17:26:21.057Z,57.74
2022-10-22T17:28:48.087Z,56.86
2022-10-22T17:31:27.567Z,57.47
2022-10-22T17:33:56.003Z,58.78
2022-10-22T17:36:25.137Z,59.14
2022-10-22T17:38:53.982Z,59.81
2022-10-22T17:41:23.106Z,58.49
2022-10-22T17:43:50.197Z,57.50
2022-10-22T17:46:24.785Z,56.72
2022-10-22T17:48:56.199Z,55.36
2022-10-22T17:51:23.654Z,56.28
2022-10-22T17:53:50.972Z,56.48
2022-10-22T17:56:20.748Z,56.65
2022-10-22T17:58:48.264Z,54.10
2022-10-22T18:01:23.852Z,53.80
2022-10-22T18:03:52.044Z,54.85
2022-10-22T18:06:19.376Z,58.25
2022-10-22T18:08:46.585Z,60.29
2022-10-22T18:11:17.106Z,60.97
2022-10-22T18:13:50.670Z,60.18
2022-10-22T18:16:17.910Z,60.14
2022-10-22T18:18:48.825Z,60.20
2022-10-22T18:21:16.691Z,58.71
2022-10-22T18:23:43.815Z,60.12
2022-10-22T18:26:12.839Z,61.23
2022-10-22T18:28:40.562Z,62.33
2022-10-22T18:31:08.609Z,62.15
2022-10-22T18:33:36.345Z,60.92
2022-10-22T18:36:11.110Z,60.47
2022-10-22T18:38:38.421Z,58.08
2022-10-22T18:41:09.365Z,59.05
2022-10-22T18:43:37.386Z,61.01
2022-10-22T18:46:08.024Z,61.82
2022-10-22T18:48:37.221Z,62.59
2022-10-22T18:51:08.517Z,62.52
2022-10-22T18:53:36.716Z,60.97
2022-10-22T18:56:11.121Z,60.48
2022-10-22T18:58:42.280Z,61.15
2022-10-22T19:01:10.307Z,61.23
2022-10-22T19:03:38.923Z,61.80
2022-10-22T19:06:06.953Z,62.65
2022-10-22T19:08:35.867Z,63.63
2022-10-22T19:11:09.533Z,63.34
2022-10-22T19:13:36.567Z,62.02
2022-10-22T19:16:06.908Z,61.28
2022-10-22T19:18:34.776Z,61.48
2022-10-22T19:21:02.145Z,62.10
2022-10-22T19:23:32.815Z,62.80
2022-10-22T19:26:07.207Z,63.34
2022-10-22T19:28:34.166Z,64.53
2022-10-22T19:31:01.237Z,64.32
2022-10-22T19:33:34.017Z,62.53
2022-10-22T19:36:05.420Z,61.95
2022-10-22T19:38:37.723Z,62.43
2022-10-22T19:41:09.446Z,62.84
2022-10-22T19:43:36.426Z,63.65
2022-10-22T19:46:04.551Z,64.02
2022-10-22T19:48:31.738Z,64.49
2022-10-22T19:51:03.584Z,64.46
2022-10-22T19:53:30.926Z,62.86
2022-10-22T19:55:58.730Z,62.51
2022-10-22T19:58:27.117Z,62.85
2022-10-22T20:00:54.340Z,63.33
2022-10-22T20:03:21.871Z,63.88
2022-10-22T20:05:50.582Z,64.56
2022-10-22T20:08:17.597Z,65.22
2022-10-22T20:10:49.146Z,64.99
2022-10-22T20:13:16.409Z,63.75
2022-10-22T20:15:43.374Z,63.18
2022-10-22T20:18:10.430Z,63.03
2022-10-22T20:20:40.514Z,63.74
2022-10-22T20:23:08.788Z,64.21
2022-10-22T20:25:35.994Z,64.91
2022-10-22T20:28:02.991Z,65.02
2022-10-22T20:30:30.507Z,63.64
2022-10-22T20:32:57.570Z,63.28
2022-10-22T20:35:24.563Z,63.68
2022-10-22T20:37:51.718Z,64.24
2022-10-22T20:40:20.212Z,64.55
2022-10-22T20:42:49.420Z,65.07
2022-10-22T20:45:16.376Z,65.27
2022-10-22T20:47:51.375Z,63.76
2022-10-22T20:50:18.990Z,63.19
2022-10-22T20:52:45.923Z,62.94
2022-10-22T20:57:45.829Z,63.65
2022-10-22T21:00:15.231Z,64.99
2022-10-22T21:02:42.816Z,65.26
2022-10-22T21:05:10.095Z,64.00
2022-10-22T21:07:37.889Z,62.63
2022-10-22T21:10:05.412Z,62.71
2022-10-22T21:12:33.101Z,63.86
2022-10-22T21:15:04.622Z,64.69
2022-10-22T21:17:34.387Z,65.61
2022-10-22T21:20:01.368Z,65.67
2022-10-22T21:22:28.491Z,64.29
2022-10-22T21:24:56.131Z,63.48
2022-10-22T21:27:23.131Z,63.59
2022-10-22T21:29:50.626Z,64.32
2022-10-22T21:32:17.648Z,64.55
2022-10-22T21:34:46.467Z,65.17
2022-10-22T21:37:13.435Z,66.10
2022-10-22T21:39:42.736Z,66.05
2022-10-22T21:42:09.806Z,64.29
2022-10-22T21:44:37.414Z,63.80
2022-10-22T21:47:04.635Z,63.99
2022-10-22T21:49:31.725Z,64.33
2022-10-22T21:52:00.410Z,65.00
2022-10-22T21:54:27.961Z,65.73
2022-10-22T21:56:54.873Z,65.57
2022-10-22T21:59:21.915Z,64.29
2022-10-22T22:01:49.470Z,63.85
2022-10-22T22:04:16.410Z,63.77
2022-10-22T22:06:45.669Z,64.26
2022-10-22T22:09:12.741Z,64.93
2022-10-22T22:11:40.594Z,65.54
2022-10-22T22:14:07.507Z,65.73
2022-10-22T22:16:34.932Z,64.16
2022-10-22T22:19:05.947Z,63.47
2022-10-22T22:21:33.924Z,63.63
2022-10-22T22:24:01.035Z,64.31
2022-10-22T22:26:29.818Z,64.72
2022-10-22T22:29:00.607Z,65.28
2022-10-22T22:31:32.399Z,65.79
2022-10-22T22:34:00.903Z,64.48
2022-10-22T22:36:27.982Z,63.93
2022-10-22T22:38:56.250Z,64.12
2022-10-22T22:41:23.292Z,65.05
2022-10-22T22:43:50.757Z,65.51
2022-10-22T22:46:18.658Z,65.93
2022-10-22T22:48:49.595Z,65.80
2022-10-22T22:51:16.717Z,64.44
2022-10-22T22:53:43.711Z,63.92
2022-10-22T22:56:13.744Z,64.25
2022-10-22T22:59:35.564Z,65.21
2022-10-22T23:02:03.624Z,65.48
2022-10-22T23:04:30.658Z,66.27
2022-10-22T23:06:57.746Z,66.27
2022-10-22T23:09:25.773Z,64.66
2022-10-22T23:11:54.341Z,64.19
2022-10-22T23:14:21.385Z,64.29
2022-10-22T23:16:51.139Z,64.78
2022-10-22T23:19:20.291Z,65.17
2022-10-22T23:21:49.625Z,66.01
2022-10-22T23:24:18.905Z,65.76
2022-10-22T23:26:47.292Z,64.81
2022-10-22T23:29:25.395Z,64.47
2022-10-22T23:31:55.266Z,64.79
2022-10-22T23:34:24.078Z,65.50
2022-10-22T23:36:51.301Z,66.11
2022-10-22T23:39:20.008Z,66.48
2022-10-22T23:41:47.061Z,66.56
2022-10-22T23:44:16.250Z,65.38
2022-10-22T23:46:43.759Z,64.70
2022-10-22T23:49:10.686Z,63.48
2022-10-22T23:51:38.721Z,64.57
2022-10-22T23:54:07.195Z,65.35
2022-10-22T23:56:35.897Z,66.14
2022-10-22T23:59:03.386Z,66.27
